Accueil
METAR-TAF:

METAR-TAF

Aéroports :

Aéroport de Ghriss

Ghriss, Algérie

latitude: 35-12N, longitude: 000-08E, altitude: 514 m

Observation

Le bulletin a été fait il y a 1 heure et 5 minutes, à 19:00 UTC
Vent 6 kt de ouest/sud-ouest
Température 12°C
Humidité 71%
Pression 1026 hPa
Visibilité 10 km ou plus
pas de nuages en-dessous de 1500 mètres et pas de cumulonimbus.

METAR: DAOV 161900Z 24006KT CAVOK 12/07 Q1026

Heure: 21:05 (20:05 UTC)

Prévision

Le bulletin a été fait il y a 3 heures et 5 minutes, à 17:00 UTC
Prévision valable du 16 à 18 UTC au 17 à 03 UTC
Vent 2 kt de direction variable
Visibilité 10 km ou plus
pas de nuages en-dessous de 1500 mètres et pas de cumulonimbus.

TAF: DAOV 161700Z 1618/1703 VRB02KT CAVOK

Observations et prévisions météorologiques de plus de 4000 aéroports (messages METAR et TAF).

Les stations disponibles sont représentées par des disques jaunes et rouges sur la carte.

Passer la souris dessus pour voir le nom de la station.

Cliquer dessus pour voir les observations et prévisions météorologiques.

Pour changer de carte: cliquez sur les boutons verts avec une croix noire pour zoomer, sur le bouton vert avec un tiret pour effectuer un zoom arrière, ou sur les flèches vertes pour les cartes adjacentes.


METAR-TAF: